Time;durP1;ratioP1;P1;durP2;ratioP2;P2;SDS_P1;SDS_P2;PMS_P1;PMS_P2;Temp;Humidity;BMP_temperature;BMP_pressure;BME280_temperature;BME280_humidity;BME280_pressure;Samples;Min_cycle;Max_cycle;Signal;HPM_P1;HPM_P2
2022/06/26 00:03:49;;;;;;;11.77;5.78;;;;;;;22.23;86.63;99517.28;10458266;28;20083;-78
2022/06/26 00:08:50;;;;;;;11.95;7.03;;;;;;;21.63;86.34;99418.59;10458980;28;20510;-77
2022/06/26 00:13:51;;;;;;;13.15;6.30;;;;;;;22.13;86.62;99490.16;10458109;28;20063;-78
2022/06/26 00:18:52;;;;;;;15.48;6.10;;;;;;;22.02;86.98;99493.91;10457848;28;20068;-78
2022/06/26 00:23:53;;;;;;;13.75;6.38;;;;;;;21.96;87.96;99508.50;10457502;28;20059;-78
2022/06/26 00:28:53;;;;;;;18.17;6.47;;;;;;;21.77;88.70;99505.41;10456760;28;20037;-77
2022/06/26 00:33:54;;;;;;;13.75;6.63;;;;;;;21.62;89.46;99533.97;10458044;28;20408;-78
2022/06/26 00:38:55;;;;;;;15.40;6.28;;;;;;;20.61;90.30;99367.41;10457034;28;20446;-78
2022/06/26 00:43:56;;;;;;;14.88;6.38;;;;;;;20.58;91.34;99357.13;10470420;28;20048;-78
2022/06/26 00:48:57;;;;;;;28.40;7.28;;;;;;;21.17;91.37;99462.31;10493663;28;20065;-77
2022/06/26 00:53:58;;;;;;;18.70;7.00;;;;;;;20.62;91.67;99377.13;10462500;28;20053;-78
2022/06/26 00:58:59;;;;;;;18.40;6.72;;;;;;;21.17;92.42;99472.28;10437934;28;20059;-78
2022/06/26 01:04:03;;;;;;;18.80;6.63;;;;;;;21.03;93.10;99492.69;10455891;28;20049;-78
2022/06/26 01:09:04;;;;;;;15.38;6.82;;;;;;;20.84;93.94;99487.69;10455392;28;20056;-78
2022/06/26 01:14:05;;;;;;;15.57;7.78;;;;;;;20.10;94.91;99380.38;10455258;28;20045;-77
2022/06/26 01:19:07;;;;;;;22.60;8.05;;;;;;;20.81;95.67;99506.28;10455071;28;20079;-78
2022/06/26 01:24:09;;;;;;;14.90;7.65;;;;;;;20.12;96.04;99405.22;10454921;28;20086;-78
2022/06/26 01:29:09;;;;;;;12.90;6.82;;;;;;;20.75;96.39;99503.53;10454754;28;20206;-77
2022/06/26 01:34:12;;;;;;;18.17;7.10;;;;;;;20.78;96.32;99523.81;10437099;28;20041;-77
2022/06/26 01:39:13;;;;;;;20.42;7.78;;;;;;;20.35;96.28;99438.38;10455216;28;20044;-77
2022/06/26 01:44:14;;;;;;;22.55;7.00;;;;;;;20.92;94.97;99514.22;10436895;28;20044;-78
2022/06/26 01:49:15;;;;;;;19.85;6.70;;;;;;;20.05;93.25;99375.75;10454123;28;20409;-78
2022/06/26 01:54:17;;;;;;;23.75;6.78;;;;;;;21.12;93.08;99546.00;10454256;28;20528;-77
2022/06/26 01:59:18;;;;;;;9.35;6.45;;;;;;;21.18;92.96;99553.09;10455342;28;20381;-78
2022/06/26 02:04:19;;;;;;;12.43;6.28;;;;;;;19.84;93.02;99331.59;10453503;28;20136;-78
2022/06/26 02:14:38;;;;;;;16.17;6.35;;;;;;;20.89;94.03;99517.44;10454131;28;20488;-78
2022/06/26 02:19:39;;;;;;;10.80;5.93;;;;;;;21.30;94.13;99565.56;10454756;28;20128;-78
2022/06/26 02:24:41;;;;;;;10.35;6.28;;;;;;;21.41;94.12;99568.13;10435554;28;20046;-76
2022/06/26 02:29:42;;;;;;;11.98;5.95;;;;;;;20.84;93.61;99470.69;10454891;28;20449;-78
2022/06/26 02:34:43;;;;;;;10.60;5.85;;;;;;;21.34;93.53;99554.00;10436643;28;20079;-78
2022/06/26 02:39:43;;;;;;;10.80;5.95;;;;;;;20.65;93.62;99446.78;10461692;28;20047;-78
2022/06/26 02:44:44;;;;;;;9.73;6.03;;;;;;;20.95;93.14;99464.31;10460795;28;20040;-78
2022/06/26 02:49:45;;;;;;;10.45;6.63;;;;;;;21.93;92.43;99584.72;10461990;28;20033;-78
2022/06/26 02:54:46;;;;;;;10.77;6.18;;;;;;;22.11;91.08;99570.78;10460763;28;20060;-78
2022/06/26 02:59:47;;;;;;;12.85;6.22;;;;;;;21.52;89.75;99419.59;10460995;28;20535;-77
2022/06/26 03:04:47;;;;;;;9.48;6.07;;;;;;;23.06;87.39;99569.75;10459945;28;20051;-77
2022/06/26 03:09:48;;;;;;;14.68;6.60;;;;;;;23.47;85.21;99544.28;10461107;28;20043;-78
2022/06/26 03:14:49;;;;;;;16.83;7.82;;;;;;;23.88;83.52;99560.53;10460763;28;20144;-78
2022/06/26 03:19:50;;;;;;;12.32;7.75;;;;;;;24.59;81.12;99551.34;10460227;28;20041;-78
2022/06/26 03:24:51;;;;;;;18.08;9.30;;;;;;;25.83;75.82;99553.94;10460013;28;20072;-77
2022/06/26 03:29:52;;;;;;;10.10;8.30;;;;;;;26.71;70.87;99547.16;10466618;28;20080;-76
2022/06/26 03:34:52;;;;;;;10.75;5.50;;;;;;;26.96;68.93;99566.97;10482072;28;20036;-78
2022/06/26 03:39:53;;;;;;;8.30;5.22;;;;;;;26.94;67.94;99558.28;10459701;28;20049;-78
2022/06/26 03:44:54;;;;;;;16.90;6.43;;;;;;;26.29;68.83;99531.63;10460755;28;20044;-77
2022/06/26 03:49:55;;;;;;;16.02;10.63;;;;;;;26.00;69.65;99534.44;10476797;28;20488;-79
2022/06/26 03:54:56;;;;;;;16.33;9.85;;;;;;;25.59;71.05;99537.56;10464712;28;20061;-78
2022/06/26 03:59:56;;;;;;;10.73;6.55;;;;;;;24.80;71.43;99495.00;10464666;28;20071;-78
2022/06/26 04:04:57;;;;;;;14.32;7.03;;;;;;;24.84;72.41;99535.97;10475716;28;20044;-79
2022/06/26 04:09:58;;;;;;;12.07;7.10;;;;;;;24.74;72.94;99536.88;10475693;28;20071;-78
2022/06/26 04:14:59;;;;;;;32.67;16.70;;;;;;;24.35;73.11;99485.19;10476916;28;20037;-78
2022/06/26 04:20:00;;;;;;;16.83;7.93;;;;;;;24.78;73.06;99531.66;10476763;28;20047;-78
2022/06/26 04:25:02;;;;;;;18.70;7.55;;;;;;;25.02;71.41;99539.94;10474844;28;20041;-78
2022/06/26 04:30:03;;;;;;;11.02;5.30;;;;;;;25.71;67.70;99527.91;10497812;28;20040;-79
2022/06/26 04:35:04;;;;;;;7.95;2.30;;;;;;;26.48;59.59;99539.84;10499294;28;20036;-79
2022/06/26 04:40:07;;;;;;;7.93;2.38;;;;;;;26.69;57.26;99515.88;10467213;28;20481;-79
2022/06/26 04:45:09;;;;;;;17.77;2.23;;;;;;;26.41;55.42;99461.22;10457049;28;20044;-78
2022/06/26 04:50:10;;;;;;;3.03;1.30;;;;;;;26.95;54.00;99570.78;10457313;28;20056;-78
2022/06/26 04:55:11;;;;;;;8.98;1.77;;;;;;;26.18;52.62;99454.75;10456141;28;20080;-77
2022/06/26 05:00:14;;;;;;;7.78;1.33;;;;;;;27.33;51.00;99589.88;10456062;28;20055;-78
2022/06/26 05:05:15;;;;;;;5.38;0.93;;;;;;;26.77;50.59;99498.84;10437773;28;20051;-79
2022/06/26 05:10:16;;;;;;;7.07;1.30;;;;;;;27.04;49.67;99585.38;10455909;28;20041;-78
2022/06/26 05:15:17;;;;;;;7.32;1.20;;;;;;;26.67;49.28;99587.00;10455691;28;20047;-79
2022/06/26 05:20:18;;;;;;;17.65;1.30;;;;;;;26.37;48.52;99583.53;10455220;28;20416;-77
2022/06/26 05:25:19;;;;;;;7.53;1.05;;;;;;;25.44;48.18;99455.03;10454721;28;20136;-79
2022/06/26 05:30:20;;;;;;;3.45;0.70;;;;;;;26.14;46.79;99568.81;10459533;28;20055;-78
2022/06/26 05:35:21;;;;;;;6.38;1.00;;;;;;;24.71;46.55;99338.34;10505474;28;20044;-74
2022/06/26 05:40:22;;;;;;;15.15;1.30;;;;;;;26.17;46.60;99583.78;10489295;28;20419;-71
2022/06/26 05:45:23;;;;;;;4.28;1.00;;;;;;;26.03;46.57;99555.66;10475977;28;20049;-69
2022/06/26 05:50:24;;;;;;;7.30;1.20;;;;;;;26.13;47.26;99572.66;10469911;28;20444;-70
2022/06/26 05:55:25;;;;;;;3.10;1.02;;;;;;;25.95;47.46;99581.56;10511761;28;20068;-69
2022/06/26 06:00:26;;;;;;;2.45;0.52;;;;;;;25.67;47.10;99545.91;10499488;28;20040;-69
2022/06/26 06:05:27;;;;;;;19.67;1.70;;;;;;;25.38;47.74;99494.25;10481842;28;20044;-69
2022/06/26 06:10:28;;;;;;;5.32;1.05;;;;;;;25.93;47.46;99554.63;10495723;28;20041;-67
2022/06/26 06:15:29;;;;;;;3.22;0.85;;;;;;;26.11;47.95;99576.75;10478987;28;20042;-67
2022/06/26 06:20:30;;;;;;;5.25;0.90;;;;;;;25.86;48.44;99534.31;10471898;28;20500;-69
2022/06/26 06:25:31;;;;;;;4.32;0.90;;;;;;;25.66;48.64;99492.59;10461742;28;20041;-67
2022/06/26 06:30:32;;;;;;;7.38;1.33;;;;;;;26.08;48.92;99555.56;10442766;28;20463;-69
2022/06/26 06:35:33;;;;;;;9.60;1.08;;;;;;;26.25;49.58;99569.53;10450966;28;20106;-69
2022/06/26 06:40:34;;;;;;;5.53;1.25;;;;;;;25.58;49.71;99444.28;10451343;28;20055;-70
2022/06/26 06:45:34;;;;;;;28.23;1.75;;;;;;;26.05;50.63;99513.41;10489407;28;20095;-68
2022/06/26 06:50:36;;;;;;;6.72;1.67;;;;;;;26.38;50.84;99571.56;10502692;28;20036;-68
2022/06/26 06:55:37;;;;;;;15.50;1.95;;;;;;;26.38;51.21;99560.66;10501591;28;20056;-68
2022/06/26 07:00:39;;;;;;;6.70;1.30;;;;;;;26.48;51.38;99564.34;10501733;28;20423;-68
2022/06/26 07:05:39;;;;;;;15.93;2.67;;;;;;;25.67;51.70;99445.28;10480780;28;20133;-69
2022/06/26 07:10:40;;;;;;;8.52;1.95;;;;;;;26.54;51.33;99542.22;10475028;28;20132;-68
2022/06/26 07:15:41;;;;;;;11.07;2.00;;;;;;;26.05;51.36;99436.41;10460386;28;20393;-68
2022/06/26 07:20:42;;;;;;;11.57;1.40;;;;;;;26.87;48.54;99558.66;10459321;28;20037;-68
2022/06/26 07:25:42;;;;;;;5.85;1.38;;;;;;;26.22;48.83;99439.44;10459568;28;20042;-68
2022/06/26 07:30:43;;;;;;;1.45;0.75;;;;;;;26.29;46.80;99461.66;10459586;28;20048;-68
2022/06/26 07:35:44;;;;;;;5.90;1.15;;;;;;;26.78;49.02;99549.53;10459013;28;20041;-68
2022/06/26 07:40:45;;;;;;;4.57;1.05;;;;;;;26.71;50.58;99546.34;10459577;28;20496;-67
2022/06/26 07:45:46;;;;;;;10.02;1.20;;;;;;;26.58;48.10;99528.81;10459054;28;20041;-68
2022/06/26 07:50:47;;;;;;;9.20;1.15;;;;;;;26.68;46.08;99541.47;10459560;28;20037;-68
2022/06/26 07:55:48;;;;;;;3.88;1.08;;;;;;;26.55;47.89;99534.88;10459108;28;20061;-68
2022/06/26 08:00:49;;;;;;;4.88;0.70;;;;;;;26.57;46.43;99540.84;10475282;28;20090;-69
2022/06/26 08:05:50;;;;;;;6.95;0.80;;;;;;;26.61;44.59;99539.13;10488102;28;20462;-68
2022/06/26 08:10:51;;;;;;;6.80;0.70;;;;;;;26.32;44.09;99485.56;10489433;28;20047;-69
2022/06/26 08:15:52;;;;;;;3.60;1.00;;;;;;;26.79;43.64;99546.50;10470125;28;20052;-68
2022/06/26 08:20:52;;;;;;;6.72;1.00;;;;;;;26.79;43.76;99551.94;10488416;28;20084;-70
2022/06/26 08:25:54;;;;;;;4.97;0.80;;;;;;;26.72;43.63;99537.91;10487100;28;20040;-72
2022/06/26 08:30:54;;;;;;;5.80;1.15;;;;;;;26.68;43.86;99531.41;10488521;28;20047;-69
2022/06/26 08:35:55;;;;;;;3.58;0.82;;;;;;;26.76;42.77;99532.66;10473964;28;20044;-68
2022/06/26 08:41:01;;;;;;;1.75;0.93;;;;;;;26.83;42.37;99533.91;10480875;28;20401;-67
2022/06/26 08:46:04;;;;;;;9.00;1.30;;;;;;;26.78;43.07;99504.00;10443441;28;20037;-68
2022/06/26 08:51:05;;;;;;;3.17;0.88;;;;;;;26.92;42.23;99522.31;10456038;28;20041;-68
2022/06/26 08:56:07;;;;;;;12.25;1.20;;;;;;;26.83;42.35;99522.19;10457024;28;20060;-69
2022/06/26 09:01:07;;;;;;;9.35;0.90;;;;;;;26.81;43.78;99510.78;10455953;28;20044;-68
2022/06/26 09:06:08;;;;;;;3.70;0.95;;;;;;;26.79;43.68;99504.81;10455396;28;20045;-68
2022/06/26 09:11:10;;;;;;;6.07;1.00;;;;;;;26.67;43.45;99513.44;10455950;28;20127;-69
2022/06/26 09:16:12;;;;;;;5.53;1.00;;;;;;;26.58;42.24;99516.00;10437961;28;20048;-68
2022/06/26 09:21:13;;;;;;;13.73;1.70;;;;;;;26.41;42.15;99502.88;10455309;28;20087;-70
2022/06/26 09:26:15;;;;;;;13.30;1.92;;;;;;;26.29;41.06;99493.50;10458170;28;20079;-68
2022/06/26 09:31:22;;;;;;;7.40;1.70;;;;;;;26.16;42.16;99489.59;10456545;28;20051;-68
2022/06/26 09:36:22;;;;;;;4.18;1.55;;;;;;;26.33;41.62;99505.47;10495918;28;20522;-70
2022/06/26 09:41:31;;;;;;;2.92;1.20;;;;;;;26.33;41.98;99479.03;10496698;28;20060;-70
2022/06/26 09:46:33;;;;;;;14.65;1.92;;;;;;;26.61;42.52;99506.44;10495908;28;20139;-68
2022/06/26 09:51:34;;;;;;;18.70;2.35;;;;;;;26.72;42.99;99490.78;10478146;28;20135;-68
2022/06/26 09:56:35;;;;;;;6.38;1.35;;;;;;;26.88;41.68;99488.63;10496507;28;20114;-68
2022/06/26 10:06:58;;;;;;;2.80;1.27;;;;;;;27.09;41.22;99493.41;10495588;28;20143;-68
2022/06/26 10:12:02;;;;;;;2.80;1.13;;;;;;;27.29;41.74;99483.31;10496354;28;20098;-68
2022/06/26 10:17:30;;;;;;;4.15;1.08;;;;;;;27.23;43.94;99454.53;10496114;28;20052;-68
2022/06/26 10:22:46;;;;;;;6.38;1.05;;;;;;;26.69;45.27;99376.94;10495475;28;20033;-68
2022/06/26 10:27:47;;;;;;;7.15;1.45;;;;;;;26.48;46.11;99357.38;10473257;28;20075;-68
2022/06/26 10:33:18;;;;;;;8.43;1.50;;;;;;;26.40;48.09;99373.28;10482029;28;20047;-68
2022/06/26 10:38:24;;;;;;;4.88;1.90;;;;;;;26.61;49.25;99452.78;10454188;28;20094;-69
2022/06/26 10:43:40;;;;;;;6.00;2.08;;;;;;;26.58;51.58;99471.63;10435769;28;20135;-68
2022/06/26 10:48:53;;;;;;;7.07;2.45;;;;;;;26.49;54.08;99474.19;10453090;28;20037;-69
2022/06/26 10:53:54;;;;;;;7.70;2.20;;;;;;;26.25;53.43;99463.34;10453869;28;20087;-68
2022/06/26 10:59:01;;;;;;;9.30;1.98;;;;;;;26.10;55.97;99458.13;10457752;28;20564;-68
2022/06/26 11:04:03;;;;;;;8.90;2.00;;;;;;;25.85;55.37;99460.06;10461187;28;20041;-68
2022/06/26 11:09:03;;;;;;;20.05;2.22;;;;;;;25.87;55.89;99467.91;10460074;28;20033;-68
2022/06/26 11:14:07;;;;;;;10.45;2.75;;;;;;;25.53;55.98;99405.47;10459879;28;20127;-67
2022/06/26 11:19:30;;;;;;;5.00;1.92;;;;;;;26.24;55.33;99475.34;10460784;28;20033;-68
2022/06/26 11:24:31;;;;;;;11.23;2.30;;;;;;;26.41;54.75;99464.78;10460731;28;20102;-68
2022/06/26 11:29:32;;;;;;;4.63;2.10;;;;;;;26.72;54.69;99475.22;10459404;28;20118;-68
2022/06/26 11:34:32;;;;;;;3.00;2.05;;;;;;;26.74;53.90;99453.94;10459075;28;20055;-68
2022/06/26 11:39:40;;;;;;;7.47;1.90;;;;;;;26.46;54.20;99384.91;10459608;28;20045;-67
2022/06/26 11:44:51;;;;;;;4.78;2.00;;;;;;;26.94;53.87;99452.00;10459180;28;20048;-67
2022/06/26 11:49:52;;;;;;;6.20;2.05;;;;;;;26.74;53.50;99455.84;10459205;28;20091;-68
2022/06/26 11:55:01;;;;;;;8.48;2.55;;;;;;;26.55;54.02;99480.38;10459360;28;20104;-67
2022/06/26 12:00:06;;;;;;;5.75;1.83;;;;;;;26.04;54.25;99465.53;10441018;28;20059;-66
2022/06/26 12:05:07;;;;;;;4.70;1.83;;;;;;;24.72;55.08;99297.31;10458176;28;20037;-67
2022/06/26 12:10:11;;;;;;;8.48;2.08;;;;;;;25.49;57.77;99487.63;10458822;28;20045;-67
2022/06/26 12:15:15;;;;;;;9.93;2.60;;;;;;;25.03;59.72;99441.81;10439975;28;20040;-69
2022/06/26 12:20:16;;;;;;;6.65;2.10;;;;;;;24.98;59.62;99463.59;10458105;28;20542;-69
2022/06/26 12:25:49;;;;;;;5.97;2.00;;;;;;;24.78;60.98;99458.34;10457679;28;20045;-68
2022/06/26 12:30:50;;;;;;;;;;;;;;;24.76;59.01;99453.16;10445725;28;20080;-68
2022/06/26 12:35:51;;;;;;;6.05;2.20;;;;;;;24.44;61.26;99450.97;10457375;28;19952;-69
2022/06/26 12:40:53;;;;;;;5.85;2.00;;;;;;;24.27;61.80;99445.06;10456868;28;20075;-68
2022/06/26 12:45:54;;;;;;;6.95;2.00;;;;;;;23.49;63.02;99320.97;10476186;28;20051;-69
2022/06/26 12:50:55;;;;;;;7.03;2.80;;;;;;;24.18;64.56;99438.63;10497478;28;20065;-69
2022/06/26 12:55:57;;;;;;;7.15;2.60;;;;;;;23.80;66.02;99413.84;10482860;28;20057;-69
2022/06/26 13:00:58;;;;;;;8.20;2.17;;;;;;;23.78;67.24;99435.81;10456439;28;20090;-69
2022/06/26 13:05:59;;;;;;;5.68;2.60;;;;;;;23.58;69.39;99460.25;10437819;28;20048;-69
2022/06/26 13:16:20;;;;;;;9.85;3.13;;;;;;;23.14;73.11;99463.56;10368643;28;20113;-69
2022/06/26 13:21:21;;;;;;;8.25;2.67;;;;;;;22.99;73.59;99492.28;10350878;28;20094;-68
2022/06/26 13:26:23;;;;;;;4.68;2.35;;;;;;;22.73;74.33;99477.06;10350142;28;20038;-69
2022/06/26 13:31:25;;;;;;;4.80;2.30;;;;;;;22.74;74.92;99476.81;10351168;28;20034;-68
2022/06/26 13:36:27;;;;;;;5.97;2.97;;;;;;;22.58;75.43;99475.16;10350996;28;20056;-69
2022/06/26 13:41:27;;;;;;;4.43;2.42;;;;;;;22.50;77.15;99481.13;10350787;28;20137;-69
2022/06/26 13:46:29;;;;;;;6.88;2.78;;;;;;;22.46;77.33;99493.53;10350928;28;20045;-69
2022/06/26 13:51:31;;;;;;;6.65;2.50;;;;;;;21.60;78.59;99365.06;10365615;28;20038;-69
2022/06/26 13:56:32;;;;;;;4.85;2.40;;;;;;;21.65;79.33;99384.78;10344180;28;20453;-69
2022/06/26 14:01:33;;;;;;;6.43;3.47;;;;;;;22.20;79.93;99485.38;10339829;28;20042;-69
2022/06/26 14:06:33;;;;;;;5.55;2.28;;;;;;;22.23;79.49;99490.25;10347948;28;20140;-69
2022/06/26 14:11:34;;;;;;;6.15;2.83;;;;;;;22.07;79.17;99461.47;10358126;28;20145;-69
2022/06/26 14:16:35;;;;;;;8.73;3.45;;;;;;;21.76;77.78;99428.09;10394398;28;20390;-69
2022/06/26 14:21:36;;;;;;;5.05;2.10;;;;;;;21.55;77.36;99402.88;10370223;28;20038;-68
2022/06/26 14:26:37;;;;;;;9.93;2.28;;;;;;;22.07;77.17;99481.22;10372149;28;20045;-69
2022/06/26 14:31:38;;;;;;;5.80;2.58;;;;;;;22.03;77.14;99476.59;10374634;28;20100;-69
2022/06/26 14:36:39;;;;;;;7.50;2.88;;;;;;;21.94;77.32;99492.53;10379321;28;20120;-67
2022/06/26 14:41:39;;;;;;;8.38;5.10;;;;;;;21.85;77.47;99492.22;10378170;28;20308;-69
2022/06/26 14:46:40;;;;;;;7.90;5.18;;;;;;;21.82;77.77;99506.25;10387024;28;20053;-68
2022/06/26 14:51:41;;;;;;;6.88;2.50;;;;;;;20.92;77.32;99383.84;10363454;28;20100;-68
2022/06/26 14:56:42;;;;;;;4.63;2.20;;;;;;;21.75;77.50;99510.28;10359611;28;20058;-68
2022/06/26 15:01:43;;;;;;;7.95;2.28;;;;;;;21.67;77.40;99514.28;10363338;28;20037;-69
2022/06/26 15:06:44;;;;;;;6.70;2.33;;;;;;;21.63;77.70;99519.41;10339833;28;20046;-70
2022/06/26 15:11:45;;;;;;;18.77;4.32;;;;;;;21.64;80.80;99549.94;10356860;28;20552;-69
2022/06/26 15:16:49;;;;;;;7.40;2.90;;;;;;;21.39;82.97;99553.28;10342294;28;20096;-70
2022/06/26 15:21:50;;;;;;;7.05;2.72;;;;;;;21.01;85.35;99532.66;10336742;28;20048;-70
2022/06/26 15:26:51;;;;;;;5.78;2.42;;;;;;;20.74;88.04;99555.88;10336947;28;20043;-68
2022/06/26 15:31:52;;;;;;;4.38;2.50;;;;;;;20.54;90.31;99561.06;10335714;28;20544;-70
2022/06/26 15:36:53;;;;;;;8.48;3.88;;;;;;;20.42;91.29;99544.97;10336501;28;20034;-69
2022/06/26 15:41:54;;;;;;;8.13;2.70;;;;;;;20.32;92.46;99531.38;10334812;28;20129;-69
2022/06/26 15:46:55;;;;;;;5.95;2.85;;;;;;;20.27;93.47;99545.59;10334752;28;20054;-67
2022/06/26 15:51:56;;;;;;;6.97;2.90;;;;;;;20.21;94.25;99519.66;10346968;28;20044;-69
2022/06/26 15:56:57;;;;;;;8.70;3.05;;;;;;;20.15;94.99;99515.25;10375505;28;20049;-69
2022/06/26 16:01:58;;;;;;;6.93;3.40;;;;;;;19.88;96.05;99477.44;10358274;28;20066;-68
2022/06/26 16:06:59;;;;;;;19.83;6.80;;;;;;;19.41;96.79;99402.44;10335170;28;20123;-69
2022/06/26 16:12:00;;;;;;;7.55;3.30;;;;;;;20.17;95.93;99523.91;10335966;28;20069;-69
2022/06/26 16:17:00;;;;;;;9.32;3.05;;;;;;;20.26;96.46;99537.78;10333617;28;20038;-69
2022/06/26 16:27:21;;;;;;;4.60;2.65;;;;;;;20.12;97.41;99509.56;10334677;28;20054;-68
2022/06/26 16:32:22;;;;;;;13.75;5.28;;;;;;;20.44;97.66;99550.94;10334728;28;20046;-69
2022/06/26 16:37:23;;;;;;;6.28;3.53;;;;;;;20.48;96.89;99556.66;10332540;28;20038;-69
2022/06/26 16:42:23;;;;;;;5.78;2.53;;;;;;;20.41;96.02;99550.63;10334281;28;20030;-69
2022/06/26 16:47:25;;;;;;;8.40;3.35;;;;;;;19.79;96.29;99476.25;10332769;28;20050;-68
2022/06/26 16:52:25;;;;;;;5.40;2.97;;;;;;;20.28;96.77;99568.00;10333873;28;20049;-69
2022/06/26 16:57:27;;;;;;;6.82;3.00;;;;;;;20.26;96.94;99589.84;10332652;28;20538;-69
2022/06/26 17:02:28;;;;;;;5.65;2.90;;;;;;;20.19;96.96;99572.19;10333486;28;20080;-69
2022/06/26 17:07:29;;;;;;;5.47;2.85;;;;;;;20.20;97.39;99576.53;10333782;28;20475;-69
2022/06/26 17:12:30;;;;;;;6.38;3.08;;;;;;;19.70;97.38;99512.78;10332285;28;20061;-69
2022/06/26 17:17:31;;;;;;;7.20;3.35;;;;;;;20.04;97.04;99595.22;10332302;28;20053;-68
2022/06/26 17:22:32;;;;;;;11.77;4.38;;;;;;;19.82;97.25;99580.88;10333230;28;20097;-69
2022/06/26 17:27:32;;;;;;;8.60;2.97;;;;;;;19.78;97.38;99610.19;10332108;28;20137;-68
2022/06/26 17:32:34;;;;;;;7.43;4.03;;;;;;;19.80;97.61;99643.13;10331630;28;20089;-68
2022/06/26 17:37:35;;;;;;;7.10;3.75;;;;;;;19.74;97.55;99627.09;10331701;28;20088;-69
2022/06/26 17:42:36;;;;;;;6.15;3.10;;;;;;;19.83;98.12;99649.88;10334065;28;20066;-69
2022/06/26 17:47:47;;;;;;;7.22;3.20;;;;;;;19.18;98.45;99553.44;10349038;28;20077;-69
2022/06/26 17:52:49;;;;;;;7.07;3.25;;;;;;;19.70;99.33;99642.13;10348836;28;20445;-69
2022/06/26 17:57:51;;;;;;;10.35;3.08;;;;;;;19.71;100.00;99649.13;10330512;28;20057;-69
2022/06/26 18:02:54;;;;;;;10.95;5.47;;;;;;;19.42;100.00;99579.16;10330712;28;20046;-69
2022/06/26 18:07:56;;;;;;;16.25;11.48;;;;;;;19.73;100.00;99622.75;10329831;28;20045;-69
2022/06/26 18:12:58;;;;;;;14.63;7.50;;;;;;;19.82;100.00;99632.88;10331168;28;20038;-68
2022/06/26 18:17:59;;;;;;;7.45;5.20;;;;;;;19.84;100.00;99644.25;10330900;28;20038;-69
2022/06/26 18:23:00;;;;;;;9.82;5.22;;;;;;;19.89;100.00;99666.94;10330658;28;20437;-69
2022/06/26 18:28:00;;;;;;;8.32;3.90;;;;;;;18.47;100.00;99441.59;10330324;28;20050;-69
2022/06/26 18:33:02;;;;;;;6.38;3.17;;;;;;;19.87;100.00;99663.69;10330857;28;20038;-69
2022/06/26 18:38:03;;;;;;;7.65;3.20;;;;;;;19.81;100.00;99655.50;10331628;28;20042;-69
2022/06/26 18:43:04;;;;;;;8.05;3.30;;;;;;;19.73;100.00;99655.91;10330060;28;20125;-68
2022/06/26 18:48:07;;;;;;;5.28;3.33;;;;;;;19.50;100.00;99604.84;10330453;28;20046;-69
2022/06/26 18:53:07;;;;;;;9.82;3.70;;;;;;;19.61;100.00;99615.53;10329272;28;20050;-69
2022/06/26 18:58:09;;;;;;;5.45;2.78;;;;;;;19.65;100.00;99623.97;10330773;28;20164;-68
2022/06/26 19:03:09;;;;;;;5.68;3.20;;;;;;;19.52;100.00;99591.97;10329925;28;20129;-69
2022/06/26 19:08:11;;;;;;;9.25;4.55;;;;;;;19.47;100.00;99584.59;10330330;28;20050;-68
2022/06/26 19:18:31;;;;;;;6.90;4.57;;;;;;;19.39;100.00;99576.94;10331853;28;20133;-69
2022/06/26 19:23:32;;;;;;;15.95;6.15;;;;;;;18.97;100.00;99506.53;10336027;28;20564;-68
2022/06/26 19:28:33;;;;;;;12.13;3.90;;;;;;;19.60;100.00;99622.00;10337391;28;20124;-69
2022/06/26 19:33:34;;;;;;;8.48;3.20;;;;;;;19.44;100.00;99606.63;10336005;28;20047;-69
2022/06/26 19:38:35;;;;;;;4.80;3.08;;;;;;;19.59;100.00;99639.25;10336775;28;20038;-68
2022/06/26 19:43:36;;;;;;;9.52;5.00;;;;;;;19.29;100.00;99587.53;10336232;28;20078;-69
2022/06/26 19:48:36;;;;;;;9.20;4.57;;;;;;;19.61;100.00;99644.38;10336646;28;20043;-69
2022/06/26 19:53:39;;;;;;;14.93;5.57;;;;;;;18.77;100.00;99496.22;10335417;28;20513;-69
2022/06/26 19:58:40;;;;;;;7.15;3.95;;;;;;;19.68;100.00;99641.53;10335615;28;20046;-69
2022/06/26 20:04:00;;;;;;;12.65;4.60;;;;;;;18.79;100.00;99486.03;10334520;28;20041;-69
2022/06/26 20:09:01;;;;;;;10.77;3.80;;;;;;;18.28;100.00;99399.00;10334752;28;20250;-69
2022/06/26 20:14:02;;;;;;;7.75;4.63;;;;;;;19.46;100.00;99580.28;10335114;28;20096;-69
2022/06/26 20:19:03;;;;;;;7.00;3.80;;;;;;;19.77;100.00;99615.81;10334999;28;20049;-69
2022/06/26 20:24:05;;;;;;;10.23;4.38;;;;;;;19.80;100.00;99618.00;10334876;28;20035;-68
2022/06/26 20:29:05;;;;;;;6.13;3.70;;;;;;;19.20;100.00;99529.75;10335081;28;20038;-69
2022/06/26 20:34:07;;;;;;;6.93;3.92;;;;;;;19.64;100.00;99597.25;10333687;28;20448;-69
2022/06/26 20:39:08;;;;;;;7.07;3.33;;;;;;;18.79;100.00;99459.94;10335169;28;20494;-69
2022/06/26 20:44:09;;;;;;;9.88;4.10;;;;;;;19.67;100.00;99605.69;10333837;28;20053;-69
2022/06/26 20:49:12;;;;;;;5.60;3.97;;;;;;;19.63;100.00;99599.16;10332688;28;20184;-69
2022/06/26 20:54:13;;;;;;;9.38;3.83;;;;;;;19.59;100.00;99592.59;10371046;28;20149;-69
2022/06/26 20:59:14;;;;;;;9.15;4.40;;;;;;;18.17;100.00;99363.09;10374786;28;20533;-69
2022/06/26 21:04:15;;;;;;;6.95;4.13;;;;;;;18.79;100.00;99465.31;10368441;28;20077;-69
2022/06/26 21:09:16;;;;;;;6.45;3.95;;;;;;;18.70;100.00;99434.47;10332941;28;20045;-69
2022/06/26 21:14:17;;;;;;;10.98;4.68;;;;;;;19.58;100.00;99562.16;10333965;28;20049;-68
2022/06/26 21:19:21;;;;;;;10.50;5.65;;;;;;;19.19;100.00;99512.00;10332753;28;20045;-69
2022/06/26 21:24:21;;;;;;;;;;;;;;;19.91;100.00;99622.50;10333894;28;20130;-66
2022/06/26 21:29:22;;;;;;;13.90;4.07;;;;;;;19.70;100.00;99625.97;10332373;28;20020;-69
2022/06/26 21:34:23;;;;;;;6.00;4.22;;;;;;;19.60;100.00;99664.31;10332376;28;20038;-69
2022/06/26 21:39:24;;;;;;;11.13;4.93;;;;;;;18.95;100.00;99552.50;10332174;28;20038;-70
2022/06/26 21:44:24;;;;;;;13.45;4.70;;;;;;;19.00;100.00;99549.09;10332042;28;20042;-70
2022/06/26 21:49:25;;;;;;;8.10;4.07;;;;;;;19.70;100.00;99664.50;10332201;28;20038;-71
2022/06/26 21:54:26;;;;;;;6.82;3.95;;;;;;;19.36;100.00;99626.72;10332053;28;20082;-72
2022/06/26 21:59:27;;;;;;;6.15;4.40;;;;;;;19.55;100.00;99640.78;10332008;28;20050;-71
2022/06/26 22:04:28;;;;;;;12.27;4.43;;;;;;;19.32;100.00;99647.09;10332217;28;20470;-72
2022/06/26 22:09:29;;;;;;;12.40;4.30;;;;;;;18.93;100.00;99593.13;10332560;28;20112;-71
2022/06/26 22:14:29;;;;;;;8.93;4.45;;;;;;;19.59;100.00;99684.19;10331559;28;20041;-70
2022/06/26 22:19:30;;;;;;;16.25;5.13;;;;;;;19.08;100.00;99608.72;10331542;28;20097;-71
2022/06/26 22:24:31;;;;;;;7.18;5.00;;;;;;;19.59;100.00;99670.72;10331480;28;20045;-71
2022/06/26 22:29:32;;;;;;;10.30;4.90;;;;;;;19.66;100.00;99662.53;10331224;28;20035;-71
2022/06/26 22:34:32;;;;;;;14.38;5.40;;;;;;;19.38;100.00;99645.31;10331330;28;20065;-71
2022/06/26 22:39:33;;;;;;;9.88;4.53;;;;;;;19.06;100.00;99594.69;10331194;28;20030;-70
2022/06/26 22:44:34;;;;;;;11.68;5.32;;;;;;;19.54;100.00;99663.41;10331143;28;20051;-70
2022/06/26 22:49:36;;;;;;;9.52;4.85;;;;;;;18.73;100.00;99528.16;10338397;28;20045;-70
2022/06/26 22:54:37;;;;;;;15.13;5.47;;;;;;;19.51;100.00;99641.53;10355029;28;20065;-70
2022/06/26 22:59:38;;;;;;;14.43;4.97;;;;;;;19.01;100.00;99569.56;10338077;28;20038;-70
2022/06/26 23:04:38;;;;;;;9.65;4.53;;;;;;;19.42;100.00;99643.78;10337644;28;20057;-70
2022/06/26 23:09:39;;;;;;;9.57;5.45;;;;;;;19.46;100.00;99663.78;10339127;28;20042;-70
2022/06/26 23:14:41;;;;;;;11.70;4.57;;;;;;;19.46;100.00;99658.41;10338070;28;20038;-70
2022/06/26 23:19:41;;;;;;;7.63;4.93;;;;;;;19.31;100.00;99634.72;10337859;28;20034;-69
2022/06/26 23:24:42;;;;;;;11.57;5.10;;;;;;;19.39;100.00;99655.06;10336880;28;20077;-69
2022/06/26 23:29:44;;;;;;;7.72;5.20;;;;;;;18.73;100.00;99554.22;10337907;28;20526;-70
2022/06/26 23:34:45;;;;;;;13.18;5.25;;;;;;;19.58;100.00;99726.50;10353103;28;20128;-70
2022/06/26 23:39:46;;;;;;;7.30;5.22;;;;;;;19.51;100.00;99731.22;10337642;28;20045;-70
2022/06/26 23:44:47;;;;;;;11.30;5.65;;;;;;;19.63;100.00;99747.34;10336298;28;20046;-70